sensor_id;sensor_type;location;lat;lon;timestamp;P1;durP1;ratioP1;P2;durP2;ratioP2
44720;SDS011;30450;52.534;13.398;2022-08-21T00:01:23;13.63;;;7.45;;
44720;SDS011;30450;52.534;13.398;2022-08-21T00:06:15;9.65;;;7.00;;
44720;SDS011;30450;52.534;13.398;2022-08-21T00:08:40;10.45;;;7.60;;
44720;SDS011;30450;52.534;13.398;2022-08-21T00:11:06;12.25;;;7.90;;
44720;SDS011;30450;52.534;13.398;2022-08-21T00:13:32;10.85;;;6.78;;
44720;SDS011;30450;52.534;13.398;2022-08-21T00:15:58;8.70;;;6.63;;
44720;SDS011;30450;52.534;13.398;2022-08-21T00:18:24;9.30;;;7.40;;
44720;SDS011;30450;52.534;13.398;2022-08-21T00:20:50;8.77;;;6.55;;
44720;SDS011;30450;52.534;13.398;2022-08-21T00:23:15;10.95;;;6.65;;
44720;SDS011;30450;52.534;13.398;2022-08-21T00:25:42;6.88;;;5.97;;
44720;SDS011;30450;52.534;13.398;2022-08-21T00:28:08;10.18;;;7.93;;
44720;SDS011;30450;52.534;13.398;2022-08-21T00:30:34;7.95;;;6.38;;
44720;SDS011;30450;52.534;13.398;2022-08-21T00:33:00;9.73;;;7.13;;
44720;SDS011;30450;52.534;13.398;2022-08-21T00:35:27;8.55;;;6.35;;
44720;SDS011;30450;52.534;13.398;2022-08-21T00:37:52;6.95;;;5.85;;
44720;SDS011;30450;52.534;13.398;2022-08-21T00:40:20;9.82;;;6.00;;
44720;SDS011;30450;52.534;13.398;2022-08-21T00:42:46;7.18;;;5.55;;
44720;SDS011;30450;52.534;13.398;2022-08-21T00:45:12;9.07;;;6.53;;
44720;SDS011;30450;52.534;13.398;2022-08-21T00:47:37;6.68;;;5.97;;
44720;SDS011;30450;52.534;13.398;2022-08-21T00:50:04;10.95;;;5.85;;
44720;SDS011;30450;52.534;13.398;2022-08-21T00:52:31;8.40;;;6.10;;
44720;SDS011;30450;52.534;13.398;2022-08-21T00:54:58;9.18;;;6.75;;
44720;SDS011;30450;52.534;13.398;2022-08-21T00:57:29;8.68;;;6.45;;
44720;SDS011;30450;52.534;13.398;2022-08-21T00:59:56;7.30;;;5.75;;
44720;SDS011;30450;52.534;13.398;2022-08-21T01:02:24;7.32;;;6.70;;
44720;SDS011;30450;52.534;13.398;2022-08-21T01:04:50;9.85;;;6.65;;
44720;SDS011;30450;52.534;13.398;2022-08-21T01:07:15;11.13;;;6.80;;
44720;SDS011;30450;52.534;13.398;2022-08-21T01:09:41;8.00;;;7.05;;
44720;SDS011;30450;52.534;13.398;2022-08-21T01:12:07;8.20;;;6.18;;
44720;SDS011;30450;52.534;13.398;2022-08-21T01:14:34;7.97;;;6.77;;
44720;SDS011;30450;52.534;13.398;2022-08-21T01:17:00;12.90;;;6.63;;
44720;SDS011;30450;52.534;13.398;2022-08-21T01:19:26;7.45;;;6.80;;
44720;SDS011;30450;52.534;13.398;2022-08-21T01:21:52;7.57;;;6.35;;
44720;SDS011;30450;52.534;13.398;2022-08-21T01:24:19;7.43;;;6.28;;
44720;SDS011;30450;52.534;13.398;2022-08-21T01:26:45;8.90;;;7.25;;
44720;SDS011;30450;52.534;13.398;2022-08-21T01:32:03;10.43;;;6.95;;
44720;SDS011;30450;52.534;13.398;2022-08-21T01:34:29;7.95;;;7.15;;
44720;SDS011;30450;52.534;13.398;2022-08-21T01:36:55;10.93;;;7.25;;
44720;SDS011;30450;52.534;13.398;2022-08-21T01:39:21;9.23;;;6.75;;
44720;SDS011;30450;52.534;13.398;2022-08-21T01:41:46;8.52;;;6.80;;
44720;SDS011;30450;52.534;13.398;2022-08-21T01:44:12;9.82;;;6.72;;
44720;SDS011;30450;52.534;13.398;2022-08-21T01:46:38;6.53;;;5.90;;
44720;SDS011;30450;52.534;13.398;2022-08-21T01:49:04;8.30;;;6.40;;
44720;SDS011;30450;52.534;13.398;2022-08-21T01:51:30;8.20;;;5.93;;
44720;SDS011;30450;52.534;13.398;2022-08-21T01:53:56;7.20;;;5.82;;
44720;SDS011;30450;52.534;13.398;2022-08-21T01:56:22;7.40;;;5.60;;
44720;SDS011;30450;52.534;13.398;2022-08-21T01:58:48;6.30;;;5.18;;
44720;SDS011;30450;52.534;13.398;2022-08-21T02:01:14;6.15;;;4.78;;
44720;SDS011;30450;52.534;13.398;2022-08-21T02:03:40;6.68;;;5.55;;
44720;SDS011;30450;52.534;13.398;2022-08-21T02:06:07;6.28;;;5.20;;
44720;SDS011;30450;52.534;13.398;2022-08-21T02:08:33;8.55;;;5.10;;
44720;SDS011;30450;52.534;13.398;2022-08-21T02:10:59;9.77;;;5.38;;
44720;SDS011;30450;52.534;13.398;2022-08-21T02:13:25;9.50;;;5.13;;
44720;SDS011;30450;52.534;13.398;2022-08-21T02:15:51;6.75;;;4.30;;
44720;SDS011;30450;52.534;13.398;2022-08-21T02:18:17;8.32;;;4.88;;
44720;SDS011;30450;52.534;13.398;2022-08-21T02:20:45;6.63;;;4.57;;
44720;SDS011;30450;52.534;13.398;2022-08-21T02:23:11;7.82;;;4.60;;
44720;SDS011;30450;52.534;13.398;2022-08-21T02:25:37;7.00;;;4.38;;
44720;SDS011;30450;52.534;13.398;2022-08-21T02:28:04;7.45;;;4.50;;
44720;SDS011;30450;52.534;13.398;2022-08-21T02:30:31;7.20;;;4.20;;
44720;SDS011;30450;52.534;13.398;2022-08-21T02:32:58;9.38;;;4.38;;
44720;SDS011;30450;52.534;13.398;2022-08-21T02:35:25;5.25;;;4.00;;
44720;SDS011;30450;52.534;13.398;2022-08-21T02:37:52;9.82;;;4.72;;
44720;SDS011;30450;52.534;13.398;2022-08-21T02:42:44;8.20;;;4.72;;
44720;SDS011;30450;52.534;13.398;2022-08-21T02:45:11;9.35;;;4.85;;
44720;SDS011;30450;52.534;13.398;2022-08-21T02:47:36;8.55;;;4.68;;
44720;SDS011;30450;52.534;13.398;2022-08-21T02:50:03;10.93;;;5.28;;
44720;SDS011;30450;52.534;13.398;2022-08-21T02:52:29;4.90;;;4.28;;
44720;SDS011;30450;52.534;13.398;2022-08-21T02:54:55;6.47;;;3.88;;
44720;SDS011;30450;52.534;13.398;2022-08-21T02:57:20;6.57;;;4.00;;
44720;SDS011;30450;52.534;13.398;2022-08-21T02:59:46;8.57;;;3.88;;
44720;SDS011;30450;52.534;13.398;2022-08-21T03:02:12;8.23;;;4.15;;
44720;SDS011;30450;52.534;13.398;2022-08-21T03:04:38;9.60;;;4.60;;
44720;SDS011;30450;52.534;13.398;2022-08-21T03:07:04;5.72;;;3.88;;
44720;SDS011;30450;52.534;13.398;2022-08-21T03:09:29;7.10;;;4.00;;
44720;SDS011;30450;52.534;13.398;2022-08-21T03:11:55;7.40;;;3.90;;
44720;SDS011;30450;52.534;13.398;2022-08-21T03:14:21;4.35;;;3.67;;
44720;SDS011;30450;52.534;13.398;2022-08-21T03:16:46;4.57;;;3.90;;
44720;SDS011;30450;52.534;13.398;2022-08-21T03:19:12;6.82;;;4.13;;
44720;SDS011;30450;52.534;13.398;2022-08-21T03:21:38;6.38;;;3.70;;
44720;SDS011;30450;52.534;13.398;2022-08-21T03:24:04;5.85;;;3.63;;
44720;SDS011;30450;52.534;13.398;2022-08-21T03:26:30;7.22;;;3.53;;
44720;SDS011;30450;52.534;13.398;2022-08-21T03:28:56;7.68;;;3.42;;
44720;SDS011;30450;52.534;13.398;2022-08-21T03:31:23;10.18;;;4.05;;
44720;SDS011;30450;52.534;13.398;2022-08-21T03:33:49;7.63;;;3.85;;
44720;SDS011;30450;52.534;13.398;2022-08-21T03:36:15;5.43;;;3.50;;
44720;SDS011;30450;52.534;13.398;2022-08-21T03:38:41;9.07;;;3.45;;
44720;SDS011;30450;52.534;13.398;2022-08-21T03:41:07;6.28;;;3.70;;
44720;SDS011;30450;52.534;13.398;2022-08-21T03:43:33;6.45;;;3.33;;
44720;SDS011;30450;52.534;13.398;2022-08-21T03:46:00;5.32;;;3.00;;
44720;SDS011;30450;52.534;13.398;2022-08-21T03:48:26;7.35;;;3.80;;
44720;SDS011;30450;52.534;13.398;2022-08-21T03:50:51;6.03;;;3.80;;
44720;SDS011;30450;52.534;13.398;2022-08-21T03:53:17;7.35;;;3.47;;
44720;SDS011;30450;52.534;13.398;2022-08-21T03:55:47;6.70;;;3.67;;
44720;SDS011;30450;52.534;13.398;2022-08-21T03:58:14;6.95;;;3.70;;
44720;SDS011;30450;52.534;13.398;2022-08-21T04:00:40;8.77;;;3.75;;
44720;SDS011;30450;52.534;13.398;2022-08-21T04:03:06;12.52;;;3.58;;
44720;SDS011;30450;52.534;13.398;2022-08-21T04:05:31;8.30;;;3.20;;
44720;SDS011;30450;52.534;13.398;2022-08-21T04:07:59;5.63;;;3.55;;
44720;SDS011;30450;52.534;13.398;2022-08-21T04:10:27;8.02;;;3.33;;
44720;SDS011;30450;52.534;13.398;2022-08-21T04:12:53;8.45;;;3.20;;
44720;SDS011;30450;52.534;13.398;2022-08-21T04:15:19;7.80;;;3.60;;
44720;SDS011;30450;52.534;13.398;2022-08-21T04:17:46;5.80;;;3.47;;
44720;SDS011;30450;52.534;13.398;2022-08-21T04:20:11;6.10;;;3.03;;
44720;SDS011;30450;52.534;13.398;2022-08-21T04:22:38;8.10;;;3.55;;
44720;SDS011;30450;52.534;13.398;2022-08-21T04:25:04;5.45;;;3.50;;
44720;SDS011;30450;52.534;13.398;2022-08-21T04:27:30;9.65;;;3.63;;
44720;SDS011;30450;52.534;13.398;2022-08-21T04:29:56;9.98;;;3.38;;
44720;SDS011;30450;52.534;13.398;2022-08-21T04:32:22;8.65;;;4.00;;
44720;SDS011;30450;52.534;13.398;2022-08-21T04:34:48;5.90;;;3.33;;
44720;SDS011;30450;52.534;13.398;2022-08-21T04:37:14;6.68;;;2.95;;
44720;SDS011;30450;52.534;13.398;2022-08-21T04:39:41;8.30;;;3.50;;
44720;SDS011;30450;52.534;13.398;2022-08-21T04:42:06;7.68;;;3.30;;
44720;SDS011;30450;52.534;13.398;2022-08-21T04:44:32;5.03;;;2.75;;
44720;SDS011;30450;52.534;13.398;2022-08-21T04:46:58;12.90;;;3.08;;
44720;SDS011;30450;52.534;13.398;2022-08-21T04:49:23;8.20;;;3.13;;
44720;SDS011;30450;52.534;13.398;2022-08-21T04:51:49;11.13;;;3.60;;
44720;SDS011;30450;52.534;13.398;2022-08-21T04:54:19;6.72;;;3.63;;
44720;SDS011;30450;52.534;13.398;2022-08-21T04:56:56;9.45;;;3.88;;
44720;SDS011;30450;52.534;13.398;2022-08-21T04:59:26;12.48;;;3.65;;
44720;SDS011;30450;52.534;13.398;2022-08-21T05:01:53;8.35;;;4.10;;
44720;SDS011;30450;52.534;13.398;2022-08-21T05:04:22;8.50;;;3.22;;
44720;SDS011;30450;52.534;13.398;2022-08-21T05:06:50;10.45;;;3.95;;
44720;SDS011;30450;52.534;13.398;2022-08-21T05:09:18;8.65;;;4.22;;
44720;SDS011;30450;52.534;13.398;2022-08-21T05:11:44;7.15;;;3.78;;
44720;SDS011;30450;52.534;13.398;2022-08-21T05:14:11;11.52;;;3.70;;
44720;SDS011;30450;52.534;13.398;2022-08-21T05:16:36;11.02;;;3.85;;
44720;SDS011;30450;52.534;13.398;2022-08-21T05:19:02;7.28;;;3.65;;
44720;SDS011;30450;52.534;13.398;2022-08-21T05:21:28;9.13;;;3.80;;
44720;SDS011;30450;52.534;13.398;2022-08-21T05:23:53;7.43;;;3.22;;
44720;SDS011;30450;52.534;13.398;2022-08-21T05:26:19;8.30;;;3.45;;
44720;SDS011;30450;52.534;13.398;2022-08-21T05:28:45;7.80;;;3.95;;
44720;SDS011;30450;52.534;13.398;2022-08-21T05:31:11;8.38;;;3.70;;
44720;SDS011;30450;52.534;13.398;2022-08-21T05:33:36;6.82;;;2.92;;
44720;SDS011;30450;52.534;13.398;2022-08-21T05:36:02;11.18;;;3.70;;
44720;SDS011;30450;52.534;13.398;2022-08-21T05:38:29;7.63;;;3.60;;
44720;SDS011;30450;52.534;13.398;2022-08-21T05:40:54;8.25;;;3.22;;
44720;SDS011;30450;52.534;13.398;2022-08-21T05:43:20;9.90;;;3.40;;
44720;SDS011;30450;52.534;13.398;2022-08-21T05:45:46;10.00;;;3.40;;
44720;SDS011;30450;52.534;13.398;2022-08-21T05:48:14;5.97;;;3.13;;
44720;SDS011;30450;52.534;13.398;2022-08-21T05:53:06;7.80;;;2.83;;
44720;SDS011;30450;52.534;13.398;2022-08-21T05:55:31;8.63;;;3.38;;
44720;SDS011;30450;52.534;13.398;2022-08-21T05:57:57;8.80;;;3.58;;
44720;SDS011;30450;52.534;13.398;2022-08-21T06:00:23;7.80;;;3.10;;
44720;SDS011;30450;52.534;13.398;2022-08-21T06:02:49;6.35;;;2.45;;
44720;SDS011;30450;52.534;13.398;2022-08-21T06:05:16;6.30;;;2.45;;
44720;SDS011;30450;52.534;13.398;2022-08-21T06:07:42;4.38;;;2.28;;
44720;SDS011;30450;52.534;13.398;2022-08-21T06:10:08;6.55;;;2.63;;
44720;SDS011;30450;52.534;13.398;2022-08-21T06:12:34;7.50;;;2.80;;
44720;SDS011;30450;52.534;13.398;2022-08-21T06:14:59;9.23;;;2.70;;
44720;SDS011;30450;52.534;13.398;2022-08-21T06:17:25;5.35;;;2.78;;
44720;SDS011;30450;52.534;13.398;2022-08-21T06:19:54;5.72;;;2.88;;
44720;SDS011;30450;52.534;13.398;2022-08-21T06:22:20;9.45;;;2.78;;
44720;SDS011;30450;52.534;13.398;2022-08-21T06:24:46;8.40;;;3.10;;
44720;SDS011;30450;52.534;13.398;2022-08-21T06:27:11;13.77;;;2.97;;
44720;SDS011;30450;52.534;13.398;2022-08-21T06:29:37;7.88;;;3.20;;
44720;SDS011;30450;52.534;13.398;2022-08-21T06:32:03;8.95;;;3.10;;
44720;SDS011;30450;52.534;13.398;2022-08-21T06:34:29;10.38;;;3.63;;
44720;SDS011;30450;52.534;13.398;2022-08-21T06:36:55;8.00;;;3.30;;
44720;SDS011;30450;52.534;13.398;2022-08-21T06:39:21;12.65;;;3.80;;
44720;SDS011;30450;52.534;13.398;2022-08-21T06:41:47;13.73;;;3.75;;
44720;SDS011;30450;52.534;13.398;2022-08-21T06:44:15;7.75;;;3.58;;
44720;SDS011;30450;52.534;13.398;2022-08-21T06:49:06;17.60;;;3.85;;
44720;SDS011;30450;52.534;13.398;2022-08-21T06:51:32;8.95;;;3.30;;
44720;SDS011;30450;52.534;13.398;2022-08-21T06:53:57;10.15;;;3.33;;
44720;SDS011;30450;52.534;13.398;2022-08-21T06:56:23;6.43;;;2.90;;
44720;SDS011;30450;52.534;13.398;2022-08-21T06:58:48;14.23;;;4.38;;
44720;SDS011;30450;52.534;13.398;2022-08-21T07:01:14;10.80;;;3.28;;
44720;SDS011;30450;52.534;13.398;2022-08-21T07:03:41;8.13;;;3.42;;
44720;SDS011;30450;52.534;13.398;2022-08-21T07:06:07;9.30;;;3.85;;
44720;SDS011;30450;52.534;13.398;2022-08-21T07:08:34;17.88;;;2.92;;
44720;SDS011;30450;52.534;13.398;2022-08-21T07:11:00;9.00;;;3.00;;
44720;SDS011;30450;52.534;13.398;2022-08-21T07:15:52;9.55;;;3.63;;
44720;SDS011;30450;52.534;13.398;2022-08-21T07:18:18;10.85;;;3.67;;
44720;SDS011;30450;52.534;13.398;2022-08-21T07:20:44;8.63;;;3.47;;
44720;SDS011;30450;52.534;13.398;2022-08-21T07:23:18;6.80;;;3.53;;
44720;SDS011;30450;52.534;13.398;2022-08-21T07:25:46;8.60;;;2.67;;
44720;SDS011;30450;52.534;13.398;2022-08-21T07:28:11;11.88;;;3.10;;
44720;SDS011;30450;52.534;13.398;2022-08-21T07:30:37;8.73;;;2.60;;
44720;SDS011;30450;52.534;13.398;2022-08-21T07:33:03;7.93;;;2.75;;
44720;SDS011;30450;52.534;13.398;2022-08-21T07:35:29;6.07;;;2.95;;
44720;SDS011;30450;52.534;13.398;2022-08-21T07:37:56;8.45;;;2.45;;
44720;SDS011;30450;52.534;13.398;2022-08-21T07:40:22;5.78;;;2.38;;
44720;SDS011;30450;52.534;13.398;2022-08-21T07:42:47;5.18;;;2.40;;
44720;SDS011;30450;52.534;13.398;2022-08-21T07:45:16;8.77;;;2.28;;
44720;SDS011;30450;52.534;13.398;2022-08-21T07:47:42;5.60;;;2.13;;
44720;SDS011;30450;52.534;13.398;2022-08-21T07:50:08;7.07;;;2.60;;
44720;SDS011;30450;52.534;13.398;2022-08-21T07:52:34;5.82;;;1.77;;
44720;SDS011;30450;52.534;13.398;2022-08-21T07:54:59;5.07;;;2.17;;
44720;SDS011;30450;52.534;13.398;2022-08-21T07:57:25;7.15;;;2.33;;
44720;SDS011;30450;52.534;13.398;2022-08-21T07:59:51;4.68;;;1.80;;
44720;SDS011;30450;52.534;13.398;2022-08-21T08:02:21;4.47;;;2.00;;
44720;SDS011;30450;52.534;13.398;2022-08-21T08:04:47;7.32;;;2.10;;
44720;SDS011;30450;52.534;13.398;2022-08-21T08:07:12;5.22;;;2.15;;
44720;SDS011;30450;52.534;13.398;2022-08-21T08:09:38;6.32;;;2.28;;
44720;SDS011;30450;52.534;13.398;2022-08-21T08:12:04;5.22;;;2.10;;
44720;SDS011;30450;52.534;13.398;2022-08-21T08:14:30;2.65;;;1.48;;
44720;SDS011;30450;52.534;13.398;2022-08-21T08:16:58;4.65;;;2.00;;
44720;SDS011;30450;52.534;13.398;2022-08-21T08:19:24;3.28;;;2.00;;
44720;SDS011;30450;52.534;13.398;2022-08-21T08:21:50;5.28;;;2.42;;
44720;SDS011;30450;52.534;13.398;2022-08-21T08:24:16;5.63;;;2.53;;
44720;SDS011;30450;52.534;13.398;2022-08-21T08:26:42;5.85;;;2.05;;
44720;SDS011;30450;52.534;13.398;2022-08-21T08:29:08;4.43;;;2.03;;
44720;SDS011;30450;52.534;13.398;2022-08-21T08:31:33;4.90;;;2.60;;
44720;SDS011;30450;52.534;13.398;2022-08-21T08:33:59;6.13;;;2.25;;
44720;SDS011;30450;52.534;13.398;2022-08-21T08:36:31;6.20;;;2.58;;
44720;SDS011;30450;52.534;13.398;2022-08-21T08:38:57;6.05;;;2.40;;
44720;SDS011;30450;52.534;13.398;2022-08-21T08:41:22;8.80;;;2.30;;
44720;SDS011;30450;52.534;13.398;2022-08-21T08:43:52;3.75;;;1.92;;
44720;SDS011;30450;52.534;13.398;2022-08-21T08:46:19;4.93;;;2.28;;
44720;SDS011;30450;52.534;13.398;2022-08-21T08:51:18;4.35;;;2.03;;
44720;SDS011;30450;52.534;13.398;2022-08-21T08:53:47;4.82;;;2.08;;
44720;SDS011;30450;52.534;13.398;2022-08-21T08:56:14;6.95;;;2.75;;
44720;SDS011;30450;52.534;13.398;2022-08-21T08:58:40;4.25;;;1.95;;
44720;SDS011;30450;52.534;13.398;2022-08-21T09:01:16;6.10;;;2.47;;
44720;SDS011;30450;52.534;13.398;2022-08-21T09:03:43;5.72;;;2.45;;
44720;SDS011;30450;52.534;13.398;2022-08-21T09:06:12;7.32;;;2.38;;
44720;SDS011;30450;52.534;13.398;2022-08-21T09:08:50;5.90;;;2.30;;
44720;SDS011;30450;52.534;13.398;2022-08-21T09:14:12;5.22;;;2.22;;
44720;SDS011;30450;52.534;13.398;2022-08-21T09:16:46;5.30;;;2.55;;
44720;SDS011;30450;52.534;13.398;2022-08-21T09:24:25;6.05;;;1.95;;
44720;SDS011;30450;52.534;13.398;2022-08-21T09:27:26;6.05;;;2.80;;
44720;SDS011;30450;52.534;13.398;2022-08-21T09:29:48;4.18;;;2.28;;
44720;SDS011;30450;52.534;13.398;2022-08-21T09:32:17;6.78;;;2.67;;
44720;SDS011;30450;52.534;13.398;2022-08-21T09:34:54;7.95;;;2.70;;
44720;SDS011;30450;52.534;13.398;2022-08-21T09:37:20;8.18;;;2.72;;
44720;SDS011;30450;52.534;13.398;2022-08-21T09:39:46;5.82;;;2.28;;
44720;SDS011;30450;52.534;13.398;2022-08-21T09:42:12;7.03;;;2.55;;
44720;SDS011;30450;52.534;13.398;2022-08-21T09:44:46;4.85;;;2.10;;
44720;SDS011;30450;52.534;13.398;2022-08-21T09:47:12;8.50;;;2.50;;
44720;SDS011;30450;52.534;13.398;2022-08-21T09:49:39;4.57;;;2.58;;
44720;SDS011;30450;52.534;13.398;2022-08-21T09:52:06;6.68;;;2.83;;
44720;SDS011;30450;52.534;13.398;2022-08-21T09:54:40;7.93;;;2.45;;
44720;SDS011;30450;52.534;13.398;2022-08-21T09:59:54;3.88;;;2.25;;
44720;SDS011;30450;52.534;13.398;2022-08-21T10:02:33;4.90;;;2.35;;
44720;SDS011;30450;52.534;13.398;2022-08-21T10:05:06;6.88;;;2.38;;
44720;SDS011;30450;52.534;13.398;2022-08-21T10:07:36;4.80;;;2.42;;
44720;SDS011;30450;52.534;13.398;2022-08-21T10:10:03;6.45;;;2.63;;
44720;SDS011;30450;52.534;13.398;2022-08-21T10:12:35;5.80;;;2.20;;
44720;SDS011;30450;52.534;13.398;2022-08-21T10:18:09;7.18;;;2.22;;
44720;SDS011;30450;52.534;13.398;2022-08-21T10:20:25;8.82;;;2.75;;
44720;SDS011;30450;52.534;13.398;2022-08-21T10:23:02;4.07;;;2.17;;
44720;SDS011;30450;52.534;13.398;2022-08-21T10:25:52;3.88;;;2.00;;
44720;SDS011;30450;52.534;13.398;2022-08-21T10:28:37;8.32;;;2.08;;
44720;SDS011;30450;52.534;13.398;2022-08-21T10:31:10;3.70;;;2.22;;
44720;SDS011;30450;52.534;13.398;2022-08-21T10:36:13;2.63;;;1.88;;
44720;SDS011;30450;52.534;13.398;2022-08-21T10:41:12;6.03;;;2.42;;
44720;SDS011;30450;52.534;13.398;2022-08-21T10:43:44;6.78;;;2.75;;
44720;SDS011;30450;52.534;13.398;2022-08-21T10:46:24;4.88;;;2.33;;
44720;SDS011;30450;52.534;13.398;2022-08-21T10:49:04;6.40;;;2.45;;
44720;SDS011;30450;52.534;13.398;2022-08-21T10:56:37;3.50;;;2.58;;
44720;SDS011;30450;52.534;13.398;2022-08-21T10:59:14;6.90;;;2.58;;
44720;SDS011;30450;52.534;13.398;2022-08-21T11:01:54;5.13;;;2.50;;
44720;SDS011;30450;52.534;13.398;2022-08-21T11:06:53;3.17;;;2.45;;
44720;SDS011;30450;52.534;13.398;2022-08-21T11:09:22;2.60;;;2.17;;
44720;SDS011;30450;52.534;13.398;2022-08-21T11:11:54;4.05;;;2.20;;
44720;SDS011;30450;52.534;13.398;2022-08-21T11:14:25;3.47;;;2.60;;
44720;SDS011;30450;52.534;13.398;2022-08-21T11:17:11;4.75;;;2.53;;
44720;SDS011;30450;52.534;13.398;2022-08-21T11:22:18;5.47;;;2.33;;
44720;SDS011;30450;52.534;13.398;2022-08-21T11:27:24;3.53;;;2.20;;
44720;SDS011;30450;52.534;13.398;2022-08-21T11:29:55;3.17;;;2.88;;
44720;SDS011;30450;52.534;13.398;2022-08-21T11:32:29;4.80;;;2.97;;
44720;SDS011;30450;52.534;13.398;2022-08-21T11:42:50;4.95;;;3.58;;
44720;SDS011;30450;52.534;13.398;2022-08-21T11:46:07;7.65;;;3.63;;
44720;SDS011;30450;52.534;13.398;2022-08-21T11:48:08;5.45;;;2.40;;
44720;SDS011;30450;52.534;13.398;2022-08-21T11:50:36;6.55;;;3.35;;
44720;SDS011;30450;52.534;13.398;2022-08-21T11:58:01;3.72;;;2.58;;
44720;SDS011;30450;52.534;13.398;2022-08-21T12:00:30;4.00;;;2.28;;
44720;SDS011;30450;52.534;13.398;2022-08-21T12:03:08;2.78;;;2.22;;
44720;SDS011;30450;52.534;13.398;2022-08-21T12:06:26;2.88;;;1.98;;
44720;SDS011;30450;52.534;13.398;2022-08-21T12:08:34;2.22;;;2.03;;
44720;SDS011;30450;52.534;13.398;2022-08-21T12:13:36;3.45;;;2.10;;
44720;SDS011;30450;52.534;13.398;2022-08-21T12:16:12;4.63;;;2.10;;
44720;SDS011;30450;52.534;13.398;2022-08-21T12:18:39;3.72;;;2.58;;
44720;SDS011;30450;52.534;13.398;2022-08-21T12:21:16;5.53;;;1.85;;
44720;SDS011;30450;52.534;13.398;2022-08-21T12:28:38;3.70;;;2.65;;
44720;SDS011;30450;52.534;13.398;2022-08-21T12:31:04;4.47;;;2.20;;
44720;SDS011;30450;52.534;13.398;2022-08-21T12:33:37;3.70;;;2.30;;
44720;SDS011;30450;52.534;13.398;2022-08-21T12:36:07;5.28;;;2.40;;
44720;SDS011;30450;52.534;13.398;2022-08-21T12:38:42;6.18;;;2.42;;
44720;SDS011;30450;52.534;13.398;2022-08-21T12:41:12;3.33;;;1.92;;
44720;SDS011;30450;52.534;13.398;2022-08-21T12:43:42;3.33;;;2.00;;
44720;SDS011;30450;52.534;13.398;2022-08-21T12:46:15;3.33;;;1.52;;
44720;SDS011;30450;52.534;13.398;2022-08-21T12:48:44;2.50;;;1.80;;
44720;SDS011;30450;52.534;13.398;2022-08-21T12:51:15;4.57;;;1.77;;
44720;SDS011;30450;52.534;13.398;2022-08-21T12:53:56;2.85;;;1.92;;
44720;SDS011;30450;52.534;13.398;2022-08-21T12:56:23;3.22;;;1.60;;
44720;SDS011;30450;52.534;13.398;2022-08-21T12:59:11;2.35;;;1.48;;
44720;SDS011;30450;52.534;13.398;2022-08-21T13:01:36;2.47;;;1.50;;
44720;SDS011;30450;52.534;13.398;2022-08-21T13:04:07;2.80;;;1.58;;
44720;SDS011;30450;52.534;13.398;2022-08-21T13:06:37;6.50;;;2.60;;
44720;SDS011;30450;52.534;13.398;2022-08-21T13:09:07;3.78;;;2.22;;
44720;SDS011;30450;52.534;13.398;2022-08-21T13:11:34;4.03;;;2.15;;
44720;SDS011;30450;52.534;13.398;2022-08-21T13:14:00;3.65;;;1.98;;
44720;SDS011;30450;52.534;13.398;2022-08-21T13:16:27;3.63;;;2.07;;
44720;SDS011;30450;52.534;13.398;2022-08-21T13:19:00;3.03;;;1.90;;
44720;SDS011;30450;52.534;13.398;2022-08-21T13:21:30;3.88;;;2.10;;
44720;SDS011;30450;52.534;13.398;2022-08-21T13:24:07;4.15;;;1.88;;
44720;SDS011;30450;52.534;13.398;2022-08-21T13:26:34;4.95;;;1.60;;
44720;SDS011;30450;52.534;13.398;2022-08-21T13:29:05;3.08;;;1.70;;
44720;SDS011;30450;52.534;13.398;2022-08-21T13:31:32;4.05;;;1.90;;
44720;SDS011;30450;52.534;13.398;2022-08-21T13:33:59;4.18;;;2.47;;
44720;SDS011;30450;52.534;13.398;2022-08-21T13:36:26;9.00;;;2.83;;
44720;SDS011;30450;52.534;13.398;2022-08-21T13:38:54;4.43;;;1.90;;
44720;SDS011;30450;52.534;13.398;2022-08-21T13:41:27;5.65;;;2.00;;
44720;SDS011;30450;52.534;13.398;2022-08-21T13:43:58;4.50;;;1.88;;
44720;SDS011;30450;52.534;13.398;2022-08-21T13:46:26;5.60;;;2.75;;
44720;SDS011;30450;52.534;13.398;2022-08-21T13:48:53;5.65;;;2.45;;
44720;SDS011;30450;52.534;13.398;2022-08-21T13:51:19;4.03;;;2.10;;
44720;SDS011;30450;52.534;13.398;2022-08-21T13:53:47;3.42;;;2.13;;
44720;SDS011;30450;52.534;13.398;2022-08-21T13:56:30;4.88;;;2.30;;
44720;SDS011;30450;52.534;13.398;2022-08-21T13:59:02;8.90;;;2.78;;
44720;SDS011;30450;52.534;13.398;2022-08-21T14:01:36;6.70;;;2.55;;
44720;SDS011;30450;52.534;13.398;2022-08-21T14:04:22;7.88;;;2.70;;
44720;SDS011;30450;52.534;13.398;2022-08-21T14:06:48;4.43;;;2.53;;
44720;SDS011;30450;52.534;13.398;2022-08-21T14:09:24;3.63;;;2.08;;
44720;SDS011;30450;52.534;13.398;2022-08-21T14:11:51;7.70;;;2.67;;
44720;SDS011;30450;52.534;13.398;2022-08-21T14:14:22;6.50;;;2.20;;
44720;SDS011;30450;52.534;13.398;2022-08-21T14:16:57;5.82;;;2.40;;
44720;SDS011;30450;52.534;13.398;2022-08-21T14:19:25;7.00;;;2.97;;
44720;SDS011;30450;52.534;13.398;2022-08-21T14:21:51;3.95;;;2.08;;
44720;SDS011;30450;52.534;13.398;2022-08-21T14:26:56;6.43;;;2.47;;
44720;SDS011;30450;52.534;13.398;2022-08-21T14:29:24;4.35;;;1.92;;
44720;SDS011;30450;52.534;13.398;2022-08-21T14:31:55;7.45;;;2.88;;
44720;SDS011;30450;52.534;13.398;2022-08-21T14:34:22;5.35;;;2.40;;
44720;SDS011;30450;52.534;13.398;2022-08-21T14:36:49;8.07;;;2.22;;
44720;SDS011;30450;52.534;13.398;2022-08-21T14:39:15;3.53;;;2.20;;
44720;SDS011;30450;52.534;13.398;2022-08-21T14:41:41;4.25;;;2.20;;
44720;SDS011;30450;52.534;13.398;2022-08-21T14:44:07;3.20;;;1.95;;
44720;SDS011;30450;52.534;13.398;2022-08-21T14:46:34;4.27;;;2.00;;
44720;SDS011;30450;52.534;13.398;2022-08-21T14:49:01;6.28;;;2.38;;
44720;SDS011;30450;52.534;13.398;2022-08-21T14:51:27;5.53;;;2.30;;
44720;SDS011;30450;52.534;13.398;2022-08-21T14:53:53;6.32;;;2.33;;
44720;SDS011;30450;52.534;13.398;2022-08-21T14:56:19;7.20;;;3.00;;
44720;SDS011;30450;52.534;13.398;2022-08-21T14:58:46;7.50;;;2.65;;
44720;SDS011;30450;52.534;13.398;2022-08-21T15:01:14;8.48;;;2.53;;
44720;SDS011;30450;52.534;13.398;2022-08-21T15:03:40;6.32;;;2.65;;
44720;SDS011;30450;52.534;13.398;2022-08-21T15:06:06;5.30;;;2.38;;
44720;SDS011;30450;52.534;13.398;2022-08-21T15:08:33;7.97;;;2.60;;
44720;SDS011;30450;52.534;13.398;2022-08-21T15:10:59;4.93;;;2.58;;
44720;SDS011;30450;52.534;13.398;2022-08-21T15:13:25;4.90;;;2.38;;
44720;SDS011;30450;52.534;13.398;2022-08-21T15:15:52;4.78;;;2.25;;
44720;SDS011;30450;52.534;13.398;2022-08-21T15:18:22;5.57;;;2.17;;
44720;SDS011;30450;52.534;13.398;2022-08-21T15:20:48;7.03;;;2.90;;
44720;SDS011;30450;52.534;13.398;2022-08-21T15:23:14;6.72;;;2.15;;
44720;SDS011;30450;52.534;13.398;2022-08-21T15:25:41;8.35;;;2.40;;
44720;SDS011;30450;52.534;13.398;2022-08-21T15:28:07;4.43;;;2.42;;
44720;SDS011;30450;52.534;13.398;2022-08-21T15:30:33;9.70;;;3.75;;
44720;SDS011;30450;52.534;13.398;2022-08-21T15:32:59;3.72;;;2.25;;
44720;SDS011;30450;52.534;13.398;2022-08-21T15:35:24;4.22;;;2.70;;
44720;SDS011;30450;52.534;13.398;2022-08-21T15:37:50;6.25;;;2.65;;
44720;SDS011;30450;52.534;13.398;2022-08-21T15:40:16;5.68;;;2.72;;
44720;SDS011;30450;52.534;13.398;2022-08-21T15:42:42;4.75;;;2.63;;
44720;SDS011;30450;52.534;13.398;2022-08-21T15:45:09;3.97;;;2.35;;
44720;SDS011;30450;52.534;13.398;2022-08-21T15:47:37;9.30;;;2.42;;
44720;SDS011;30450;52.534;13.398;2022-08-21T15:50:04;4.28;;;2.25;;